sensor_id;sensor_type;location;lat;lon;timestamp;temperature;humidity
47540;DHT22;33280;52.152;21.052;2024-01-30T00:00:54;1.00;99.90
47540;DHT22;33280;52.152;21.052;2024-01-30T00:03:42;1.00;99.90
47540;DHT22;33280;52.152;21.052;2024-01-30T00:06:29;1.00;99.90
47540;DHT22;33280;52.152;21.052;2024-01-30T00:09:17;1.00;99.90
47540;DHT22;33280;52.152;21.052;2024-01-30T00:12:05;1.00;99.90
47540;DHT22;33280;52.152;21.052;2024-01-30T00:14:53;1.00;99.90
47540;DHT22;33280;52.152;21.052;2024-01-30T00:17:41;1.00;99.90
47540;DHT22;33280;52.152;21.052;2024-01-30T00:20:29;1.10;99.90
47540;DHT22;33280;52.152;21.052;2024-01-30T00:23:16;1.00;99.90
47540;DHT22;33280;52.152;21.052;2024-01-30T00:26:04;1.00;99.90
47540;DHT22;33280;52.152;21.052;2024-01-30T00:28:52;1.00;99.90
47540;DHT22;33280;52.152;21.052;2024-01-30T00:31:40;1.00;99.90
47540;DHT22;33280;52.152;21.052;2024-01-30T00:34:28;1.00;99.90
47540;DHT22;33280;52.152;21.052;2024-01-30T00:37:16;1.00;99.90
47540;DHT22;33280;52.152;21.052;2024-01-30T00:40:04;1.00;99.90
47540;DHT22;33280;52.152;21.052;2024-01-30T00:42:53;1.00;99.90
47540;DHT22;33280;52.152;21.052;2024-01-30T00:45:41;1.00;99.90
47540;DHT22;33280;52.152;21.052;2024-01-30T00:48:28;1.00;99.90
47540;DHT22;33280;52.152;21.052;2024-01-30T00:51:16;1.00;99.90
47540;DHT22;33280;52.152;21.052;2024-01-30T00:54:04;1.00;99.90
47540;DHT22;33280;52.152;21.052;2024-01-30T00:56:51;1.10;99.90
47540;DHT22;33280;52.152;21.052;2024-01-30T00:59:38;1.10;99.90
47540;DHT22;33280;52.152;21.052;2024-01-30T01:02:26;1.10;99.90
47540;DHT22;33280;52.152;21.052;2024-01-30T01:05:14;1.10;99.90
47540;DHT22;33280;52.152;21.052;2024-01-30T01:08:02;1.10;99.90
47540;DHT22;33280;52.152;21.052;2024-01-30T01:10:49;1.00;99.90
47540;DHT22;33280;52.152;21.052;2024-01-30T01:13:37;1.00;99.90
47540;DHT22;33280;52.152;21.052;2024-01-30T01:16:24;1.00;99.90
47540;DHT22;33280;52.152;21.052;2024-01-30T01:19:12;1.10;99.90
47540;DHT22;33280;52.152;21.052;2024-01-30T01:21:59;1.10;99.90
47540;DHT22;33280;52.152;21.052;2024-01-30T01:24:47;1.00;99.90
47540;DHT22;33280;52.152;21.052;2024-01-30T01:27:34;1.10;99.90
47540;DHT22;33280;52.152;21.052;2024-01-30T01:30:27;1.20;99.90
47540;DHT22;33280;52.152;21.052;2024-01-30T01:33:16;1.20;99.90
47540;DHT22;33280;52.152;21.052;2024-01-30T01:36:04;1.20;99.90
47540;DHT22;33280;52.152;21.052;2024-01-30T01:38:53;1.30;99.90
47540;DHT22;33280;52.152;21.052;2024-01-30T01:41:41;1.30;99.90
47540;DHT22;33280;52.152;21.052;2024-01-30T01:44:29;1.30;99.90
47540;DHT22;33280;52.152;21.052;2024-01-30T01:47:16;1.20;99.90
47540;DHT22;33280;52.152;21.052;2024-01-30T01:50:04;1.10;99.90
47540;DHT22;33280;52.152;21.052;2024-01-30T01:52:53;1.10;99.90
47540;DHT22;33280;52.152;21.052;2024-01-30T01:55:40;1.10;99.90
47540;DHT22;33280;52.152;21.052;2024-01-30T01:58:29;1.20;99.90
47540;DHT22;33280;52.152;21.052;2024-01-30T02:01:19;1.20;99.90
47540;DHT22;33280;52.152;21.052;2024-01-30T02:04:08;1.20;99.90
47540;DHT22;33280;52.152;21.052;2024-01-30T02:06:55;1.10;99.90
47540;DHT22;33280;52.152;21.052;2024-01-30T02:09:43;1.00;99.90
47540;DHT22;33280;52.152;21.052;2024-01-30T02:12:31;1.00;99.90
47540;DHT22;33280;52.152;21.052;2024-01-30T02:15:19;0.90;99.90
47540;DHT22;33280;52.152;21.052;2024-01-30T02:18:06;0.80;99.90
47540;DHT22;33280;52.152;21.052;2024-01-30T02:20:56;0.80;99.90
47540;DHT22;33280;52.152;21.052;2024-01-30T02:23:47;0.70;99.90
47540;DHT22;33280;52.152;21.052;2024-01-30T02:26:35;0.70;99.90
47540;DHT22;33280;52.152;21.052;2024-01-30T02:29:23;0.70;99.90
47540;DHT22;33280;52.152;21.052;2024-01-30T02:32:10;0.70;99.90
47540;DHT22;33280;52.152;21.052;2024-01-30T02:34:58;0.70;99.90
47540;DHT22;33280;52.152;21.052;2024-01-30T02:37:45;0.70;99.90
47540;DHT22;33280;52.152;21.052;2024-01-30T02:40:32;0.70;99.90
47540;DHT22;33280;52.152;21.052;2024-01-30T02:43:20;0.70;99.90
47540;DHT22;33280;52.152;21.052;2024-01-30T02:46:07;0.70;99.90
47540;DHT22;33280;52.152;21.052;2024-01-30T02:48:55;0.70;99.90
47540;DHT22;33280;52.152;21.052;2024-01-30T02:51:43;0.70;99.90
47540;DHT22;33280;52.152;21.052;2024-01-30T02:54:30;0.80;99.90
47540;DHT22;33280;52.152;21.052;2024-01-30T02:57:18;0.60;99.90
47540;DHT22;33280;52.152;21.052;2024-01-30T03:00:06;0.60;99.90
47540;DHT22;33280;52.152;21.052;2024-01-30T03:02:56;0.60;99.90
47540;DHT22;33280;52.152;21.052;2024-01-30T03:05:43;0.60;99.90
47540;DHT22;33280;52.152;21.052;2024-01-30T03:08:31;0.60;99.90
47540;DHT22;33280;52.152;21.052;2024-01-30T03:11:18;0.70;99.90
47540;DHT22;33280;52.152;21.052;2024-01-30T03:14:06;0.60;99.90
47540;DHT22;33280;52.152;21.052;2024-01-30T03:16:53;0.60;99.90
47540;DHT22;33280;52.152;21.052;2024-01-30T03:19:41;0.70;99.90
47540;DHT22;33280;52.152;21.052;2024-01-30T03:22:29;0.70;99.90
47540;DHT22;33280;52.152;21.052;2024-01-30T03:25:16;0.70;99.90
47540;DHT22;33280;52.152;21.052;2024-01-30T03:28:04;0.70;99.90
47540;DHT22;33280;52.152;21.052;2024-01-30T03:30:52;0.70;99.90
47540;DHT22;33280;52.152;21.052;2024-01-30T03:33:39;0.70;99.90
47540;DHT22;33280;52.152;21.052;2024-01-30T03:36:27;0.70;99.90
47540;DHT22;33280;52.152;21.052;2024-01-30T03:39:15;0.70;99.90
47540;DHT22;33280;52.152;21.052;2024-01-30T03:42:02;0.70;99.90
47540;DHT22;33280;52.152;21.052;2024-01-30T03:44:50;0.70;99.90
47540;DHT22;33280;52.152;21.052;2024-01-30T03:47:43;0.70;99.90
47540;DHT22;33280;52.152;21.052;2024-01-30T03:50:31;0.70;99.90
47540;DHT22;33280;52.152;21.052;2024-01-30T03:53:18;0.70;99.90
47540;DHT22;33280;52.152;21.052;2024-01-30T03:56:06;0.70;99.90
47540;DHT22;33280;52.152;21.052;2024-01-30T03:58:53;0.70;99.90
47540;DHT22;33280;52.152;21.052;2024-01-30T04:01:41;0.80;99.90
47540;DHT22;33280;52.152;21.052;2024-01-30T04:04:28;0.70;99.90
47540;DHT22;33280;52.152;21.052;2024-01-30T04:07:16;0.60;99.90
47540;DHT22;33280;52.152;21.052;2024-01-30T04:10:07;0.60;99.90
47540;DHT22;33280;52.152;21.052;2024-01-30T04:12:55;0.70;99.90
47540;DHT22;33280;52.152;21.052;2024-01-30T04:15:42;0.70;99.90
47540;DHT22;33280;52.152;21.052;2024-01-30T04:18:30;0.60;99.90
47540;DHT22;33280;52.152;21.052;2024-01-30T04:21:17;0.60;99.90
47540;DHT22;33280;52.152;21.052;2024-01-30T04:24:05;0.70;99.90
47540;DHT22;33280;52.152;21.052;2024-01-30T04:26:53;0.60;99.90
47540;DHT22;33280;52.152;21.052;2024-01-30T04:29:40;0.60;99.90
47540;DHT22;33280;52.152;21.052;2024-01-30T04:32:27;0.60;99.90
47540;DHT22;33280;52.152;21.052;2024-01-30T04:35:15;0.60;99.90
47540;DHT22;33280;52.152;21.052;2024-01-30T04:38:02;0.60;99.90
47540;DHT22;33280;52.152;21.052;2024-01-30T04:40:50;0.60;99.90
47540;DHT22;33280;52.152;21.052;2024-01-30T04:43:38;0.60;99.90
47540;DHT22;33280;52.152;21.052;2024-01-30T04:46:25;0.60;99.90
47540;DHT22;33280;52.152;21.052;2024-01-30T04:49:13;0.60;99.90
47540;DHT22;33280;52.152;21.052;2024-01-30T04:52:01;0.70;99.90
47540;DHT22;33280;52.152;21.052;2024-01-30T04:54:48;0.60;99.90
47540;DHT22;33280;52.152;21.052;2024-01-30T04:57:36;0.60;99.90
47540;DHT22;33280;52.152;21.052;2024-01-30T05:00:24;0.70;99.90
47540;DHT22;33280;52.152;21.052;2024-01-30T05:03:11;0.70;99.90
47540;DHT22;33280;52.152;21.052;2024-01-30T05:05:58;0.70;99.90
47540;DHT22;33280;52.152;21.052;2024-01-30T05:08:46;0.70;99.90
47540;DHT22;33280;52.152;21.052;2024-01-30T05:11:40;0.70;99.90
47540;DHT22;33280;52.152;21.052;2024-01-30T05:14:27;0.70;99.90
47540;DHT22;33280;52.152;21.052;2024-01-30T05:17:15;0.60;99.90
47540;DHT22;33280;52.152;21.052;2024-01-30T05:20:02;0.60;99.90
47540;DHT22;33280;52.152;21.052;2024-01-30T05:22:52;0.60;99.90
47540;DHT22;33280;52.152;21.052;2024-01-30T05:25:39;0.60;99.90
47540;DHT22;33280;52.152;21.052;2024-01-30T05:28:28;0.60;99.90
47540;DHT22;33280;52.152;21.052;2024-01-30T05:31:16;0.50;99.90
47540;DHT22;33280;52.152;21.052;2024-01-30T05:34:04;0.50;99.90
47540;DHT22;33280;52.152;21.052;2024-01-30T05:36:52;0.60;99.90
47540;DHT22;33280;52.152;21.052;2024-01-30T05:39:39;0.70;99.90
47540;DHT22;33280;52.152;21.052;2024-01-30T05:42:27;0.70;99.90
47540;DHT22;33280;52.152;21.052;2024-01-30T05:45:14;0.70;99.90
47540;DHT22;33280;52.152;21.052;2024-01-30T05:48:02;0.60;99.90
47540;DHT22;33280;52.152;21.052;2024-01-30T05:50:49;0.60;99.90
47540;DHT22;33280;52.152;21.052;2024-01-30T05:53:37;0.80;99.90
47540;DHT22;33280;52.152;21.052;2024-01-30T05:56:25;0.70;99.90
47540;DHT22;33280;52.152;21.052;2024-01-30T05:59:12;0.60;99.90
47540;DHT22;33280;52.152;21.052;2024-01-30T06:02:00;0.70;99.90
47540;DHT22;33280;52.152;21.052;2024-01-30T06:04:48;0.70;99.90
47540;DHT22;33280;52.152;21.052;2024-01-30T06:07:36;0.70;99.90
47540;DHT22;33280;52.152;21.052;2024-01-30T06:10:23;0.70;99.90
47540;DHT22;33280;52.152;21.052;2024-01-30T06:13:11;0.70;99.90
47540;DHT22;33280;52.152;21.052;2024-01-30T06:15:58;0.60;99.90
47540;DHT22;33280;52.152;21.052;2024-01-30T06:18:47;0.70;99.90
47540;DHT22;33280;52.152;21.052;2024-01-30T06:21:34;0.70;99.90
47540;DHT22;33280;52.152;21.052;2024-01-30T06:24:23;0.60;99.90
47540;DHT22;33280;52.152;21.052;2024-01-30T06:27:11;0.70;99.90
47540;DHT22;33280;52.152;21.052;2024-01-30T06:29:59;0.70;99.90
47540;DHT22;33280;52.152;21.052;2024-01-30T06:32:46;0.80;99.90
47540;DHT22;33280;52.152;21.052;2024-01-30T06:35:33;0.80;99.90
47540;DHT22;33280;52.152;21.052;2024-01-30T06:38:23;0.80;99.90
47540;DHT22;33280;52.152;21.052;2024-01-30T06:41:11;0.80;99.90
47540;DHT22;33280;52.152;21.052;2024-01-30T06:43:59;0.80;99.90
47540;DHT22;33280;52.152;21.052;2024-01-30T06:46:46;0.80;99.90
47540;DHT22;33280;52.152;21.052;2024-01-30T06:49:33;0.80;99.90
47540;DHT22;33280;52.152;21.052;2024-01-30T06:52:22;0.80;99.90
47540;DHT22;33280;52.152;21.052;2024-01-30T06:55:10;0.80;99.90
47540;DHT22;33280;52.152;21.052;2024-01-30T06:57:57;0.80;99.90
47540;DHT22;33280;52.152;21.052;2024-01-30T07:00:45;0.80;99.90
47540;DHT22;33280;52.152;21.052;2024-01-30T07:03:32;0.80;99.90
47540;DHT22;33280;52.152;21.052;2024-01-30T07:06:20;0.80;99.90
47540;DHT22;33280;52.152;21.052;2024-01-30T07:09:09;0.90;99.90
47540;DHT22;33280;52.152;21.052;2024-01-30T07:11:56;1.00;99.90
47540;DHT22;33280;52.152;21.052;2024-01-30T07:14:45;1.10;99.90
47540;DHT22;33280;52.152;21.052;2024-01-30T07:17:33;1.10;99.90
47540;DHT22;33280;52.152;21.052;2024-01-30T07:20:21;1.20;99.90
47540;DHT22;33280;52.152;21.052;2024-01-30T07:23:08;1.20;99.90
47540;DHT22;33280;52.152;21.052;2024-01-30T07:25:58;1.10;99.90
47540;DHT22;33280;52.152;21.052;2024-01-30T07:28:45;1.10;99.90
47540;DHT22;33280;52.152;21.052;2024-01-30T07:31:33;1.10;99.90
47540;DHT22;33280;52.152;21.052;2024-01-30T07:34:20;1.20;99.90
47540;DHT22;33280;52.152;21.052;2024-01-30T07:37:08;1.30;99.90
47540;DHT22;33280;52.152;21.052;2024-01-30T07:39:57;1.40;99.90
47540;DHT22;33280;52.152;21.052;2024-01-30T07:42:44;1.40;99.90
47540;DHT22;33280;52.152;21.052;2024-01-30T07:45:32;1.50;99.90
47540;DHT22;33280;52.152;21.052;2024-01-30T07:48:20;1.50;99.90
47540;DHT22;33280;52.152;21.052;2024-01-30T07:51:08;1.60;99.90
47540;DHT22;33280;52.152;21.052;2024-01-30T07:53:55;1.80;99.90
47540;DHT22;33280;52.152;21.052;2024-01-30T07:56:44;2.30;99.90
47540;DHT22;33280;52.152;21.052;2024-01-30T07:59:31;3.00;99.90
47540;DHT22;33280;52.152;21.052;2024-01-30T08:02:19;3.60;99.90
47540;DHT22;33280;52.152;21.052;2024-01-30T08:05:06;4.00;99.90
47540;DHT22;33280;52.152;21.052;2024-01-30T08:07:54;4.20;99.90
47540;DHT22;33280;52.152;21.052;2024-01-30T08:10:41;4.40;99.90
47540;DHT22;33280;52.152;21.052;2024-01-30T08:13:29;4.40;99.90
47540;DHT22;33280;52.152;21.052;2024-01-30T08:16:16;4.40;99.90
47540;DHT22;33280;52.152;21.052;2024-01-30T08:19:04;4.60;99.90
47540;DHT22;33280;52.152;21.052;2024-01-30T08:21:51;4.50;99.90
47540;DHT22;33280;52.152;21.052;2024-01-30T08:24:38;4.60;99.90
47540;DHT22;33280;52.152;21.052;2024-01-30T08:27:27;4.70;99.90
47540;DHT22;33280;52.152;21.052;2024-01-30T08:30:15;4.80;99.90
47540;DHT22;33280;52.152;21.052;2024-01-30T08:33:02;4.80;99.90
47540;DHT22;33280;52.152;21.052;2024-01-30T08:35:50;4.90;99.90
47540;DHT22;33280;52.152;21.052;2024-01-30T08:38:37;5.20;99.90
47540;DHT22;33280;52.152;21.052;2024-01-30T08:41:24;5.30;99.90
47540;DHT22;33280;52.152;21.052;2024-01-30T08:44:12;5.50;99.90
47540;DHT22;33280;52.152;21.052;2024-01-30T08:46:59;5.70;99.90
47540;DHT22;33280;52.152;21.052;2024-01-30T08:49:47;5.70;99.90
47540;DHT22;33280;52.152;21.052;2024-01-30T08:52:34;5.80;99.90
47540;DHT22;33280;52.152;21.052;2024-01-30T08:55:22;5.90;99.90
47540;DHT22;33280;52.152;21.052;2024-01-30T08:58:09;5.90;99.90
47540;DHT22;33280;52.152;21.052;2024-01-30T09:00:57;6.00;99.90
47540;DHT22;33280;52.152;21.052;2024-01-30T09:03:44;5.80;99.90
47540;DHT22;33280;52.152;21.052;2024-01-30T09:06:34;5.60;99.90
47540;DHT22;33280;52.152;21.052;2024-01-30T09:09:22;5.20;99.90
47540;DHT22;33280;52.152;21.052;2024-01-30T09:12:10;5.10;99.90
47540;DHT22;33280;52.152;21.052;2024-01-30T09:14:59;4.90;99.90
47540;DHT22;33280;52.152;21.052;2024-01-30T09:17:46;4.80;99.90
47540;DHT22;33280;52.152;21.052;2024-01-30T09:20:34;4.80;99.90
47540;DHT22;33280;52.152;21.052;2024-01-30T09:23:22;4.70;99.90
47540;DHT22;33280;52.152;21.052;2024-01-30T09:26:09;4.80;99.90
47540;DHT22;33280;52.152;21.052;2024-01-30T09:28:57;4.90;99.90
47540;DHT22;33280;52.152;21.052;2024-01-30T09:31:45;4.80;99.90
47540;DHT22;33280;52.152;21.052;2024-01-30T09:34:33;4.70;99.90
47540;DHT22;33280;52.152;21.052;2024-01-30T09:37:20;4.70;99.90
47540;DHT22;33280;52.152;21.052;2024-01-30T09:40:10;4.80;99.90
47540;DHT22;33280;52.152;21.052;2024-01-30T09:42:59;4.80;99.90
47540;DHT22;33280;52.152;21.052;2024-01-30T09:45:53;4.80;99.90
47540;DHT22;33280;52.152;21.052;2024-01-30T09:48:41;4.90;99.90
47540;DHT22;33280;52.152;21.052;2024-01-30T09:51:30;4.90;99.90
47540;DHT22;33280;52.152;21.052;2024-01-30T09:54:19;5.00;99.90
47540;DHT22;33280;52.152;21.052;2024-01-30T09:57:07;5.00;99.90
47540;DHT22;33280;52.152;21.052;2024-01-30T09:59:55;5.00;99.90
47540;DHT22;33280;52.152;21.052;2024-01-30T10:02:43;5.10;99.90
47540;DHT22;33280;52.152;21.052;2024-01-30T10:05:31;5.20;99.90
47540;DHT22;33280;52.152;21.052;2024-01-30T10:08:21;5.20;99.90
47540;DHT22;33280;52.152;21.052;2024-01-30T10:11:09;5.20;99.90
47540;DHT22;33280;52.152;21.052;2024-01-30T10:13:57;5.30;99.90
47540;DHT22;33280;52.152;21.052;2024-01-30T10:16:46;5.40;99.90
47540;DHT22;33280;52.152;21.052;2024-01-30T10:19:34;5.40;99.90
47540;DHT22;33280;52.152;21.052;2024-01-30T10:22:23;5.50;99.90
47540;DHT22;33280;52.152;21.052;2024-01-30T10:25:10;5.50;99.90
47540;DHT22;33280;52.152;21.052;2024-01-30T10:27:59;5.60;99.90
47540;DHT22;33280;52.152;21.052;2024-01-30T10:30:46;5.70;99.90
47540;DHT22;33280;52.152;21.052;2024-01-30T10:33:34;5.80;99.90
47540;DHT22;33280;52.152;21.052;2024-01-30T10:36:29;5.80;99.90
47540;DHT22;33280;52.152;21.052;2024-01-30T10:39:17;5.90;99.90
47540;DHT22;33280;52.152;21.052;2024-01-30T10:42:05;6.00;99.90
47540;DHT22;33280;52.152;21.052;2024-01-30T10:45:13;6.00;99.90
47540;DHT22;33280;52.152;21.052;2024-01-30T10:48:01;5.90;99.90
47540;DHT22;33280;52.152;21.052;2024-01-30T10:50:51;6.00;99.90
47540;DHT22;33280;52.152;21.052;2024-01-30T10:53:49;6.00;99.90
47540;DHT22;33280;52.152;21.052;2024-01-30T10:56:38;6.10;99.90
47540;DHT22;33280;52.152;21.052;2024-01-30T10:59:26;6.20;99.90
47540;DHT22;33280;52.152;21.052;2024-01-30T11:02:15;6.20;99.90
47540;DHT22;33280;52.152;21.052;2024-01-30T11:05:04;6.30;99.90
47540;DHT22;33280;52.152;21.052;2024-01-30T11:07:53;6.20;99.90
47540;DHT22;33280;52.152;21.052;2024-01-30T11:10:47;6.30;99.90
47540;DHT22;33280;52.152;21.052;2024-01-30T11:13:35;6.40;99.90
47540;DHT22;33280;52.152;21.052;2024-01-30T11:16:22;6.40;99.90
47540;DHT22;33280;52.152;21.052;2024-01-30T11:19:12;6.50;99.90
47540;DHT22;33280;52.152;21.052;2024-01-30T11:22:00;6.60;99.90
47540;DHT22;33280;52.152;21.052;2024-01-30T11:24:47;6.60;99.90
47540;DHT22;33280;52.152;21.052;2024-01-30T11:27:36;6.60;99.90
47540;DHT22;33280;52.152;21.052;2024-01-30T11:30:27;6.60;99.90
47540;DHT22;33280;52.152;21.052;2024-01-30T11:33:14;6.70;99.90
47540;DHT22;33280;52.152;21.052;2024-01-30T11:36:02;6.70;99.90
47540;DHT22;33280;52.152;21.052;2024-01-30T11:38:54;6.70;99.90
47540;DHT22;33280;52.152;21.052;2024-01-30T11:41:42;6.80;99.90
47540;DHT22;33280;52.152;21.052;2024-01-30T11:44:30;6.80;99.90
47540;DHT22;33280;52.152;21.052;2024-01-30T11:47:18;6.90;99.90
47540;DHT22;33280;52.152;21.052;2024-01-30T11:50:05;7.10;99.90
47540;DHT22;33280;52.152;21.052;2024-01-30T11:52:54;7.60;99.90
47540;DHT22;33280;52.152;21.052;2024-01-30T11:55:42;8.30;99.90
47540;DHT22;33280;52.152;21.052;2024-01-30T11:58:36;9.30;99.90
47540;DHT22;33280;52.152;21.052;2024-01-30T12:01:23;10.00;99.90
47540;DHT22;33280;52.152;21.052;2024-01-30T12:04:11;10.80;99.90
47540;DHT22;33280;52.152;21.052;2024-01-30T12:06:58;11.90;99.90
47540;DHT22;33280;52.152;21.052;2024-01-30T12:09:53;13.10;99.90
47540;DHT22;33280;52.152;21.052;2024-01-30T12:12:46;13.60;99.90
47540;DHT22;33280;52.152;21.052;2024-01-30T12:15:34;14.20;99.40
47540;DHT22;33280;52.152;21.052;2024-01-30T12:18:22;14.60;97.80
47540;DHT22;33280;52.152;21.052;2024-01-30T12:21:09;15.00;96.10
47540;DHT22;33280;52.152;21.052;2024-01-30T12:23:57;15.10;93.60
47540;DHT22;33280;52.152;21.052;2024-01-30T12:26:45;15.10;93.20
47540;DHT22;33280;52.152;21.052;2024-01-30T12:29:32;14.60;92.70
47540;DHT22;33280;52.152;21.052;2024-01-30T12:32:25;14.20;93.10
47540;DHT22;33280;52.152;21.052;2024-01-30T12:35:13;13.80;94.10
47540;DHT22;33280;52.152;21.052;2024-01-30T12:38:02;13.60;93.60
47540;DHT22;33280;52.152;21.052;2024-01-30T12:40:53;13.70;94.50
47540;DHT22;33280;52.152;21.052;2024-01-30T12:43:42;13.10;95.10
47540;DHT22;33280;52.152;21.052;2024-01-30T12:46:29;12.50;95.60
47540;DHT22;33280;52.152;21.052;2024-01-30T12:49:17;12.20;96.60
47540;DHT22;33280;52.152;21.052;2024-01-30T12:52:05;11.60;97.10
47540;DHT22;33280;52.152;21.052;2024-01-30T12:54:53;10.60;98.80
47540;DHT22;33280;52.152;21.052;2024-01-30T12:57:40;9.90;99.90
47540;DHT22;33280;52.152;21.052;2024-01-30T13:00:28;9.70;99.90
47540;DHT22;33280;52.152;21.052;2024-01-30T13:03:16;9.50;99.90
47540;DHT22;33280;52.152;21.052;2024-01-30T13:06:04;9.40;99.90
47540;DHT22;33280;52.152;21.052;2024-01-30T13:08:51;9.60;99.90
47540;DHT22;33280;52.152;21.052;2024-01-30T13:11:39;9.80;99.90
47540;DHT22;33280;52.152;21.052;2024-01-30T13:14:26;10.10;99.90
47540;DHT22;33280;52.152;21.052;2024-01-30T13:17:14;10.10;99.90
47540;DHT22;33280;52.152;21.052;2024-01-30T13:20:01;10.90;99.90
47540;DHT22;33280;52.152;21.052;2024-01-30T13:22:57;11.40;99.90
47540;DHT22;33280;52.152;21.052;2024-01-30T13:25:45;11.30;99.80
47540;DHT22;33280;52.152;21.052;2024-01-30T13:28:32;11.50;99.90
47540;DHT22;33280;52.152;21.052;2024-01-30T13:31:20;11.70;99.40
47540;DHT22;33280;52.152;21.052;2024-01-30T13:34:08;11.70;98.80
47540;DHT22;33280;52.152;21.052;2024-01-30T13:36:55;12.10;98.90
47540;DHT22;33280;52.152;21.052;2024-01-30T13:39:43;12.40;98.50
47540;DHT22;33280;52.152;21.052;2024-01-30T13:42:31;12.70;97.90
47540;DHT22;33280;52.152;21.052;2024-01-30T13:45:18;12.90;96.90
47540;DHT22;33280;52.152;21.052;2024-01-30T13:48:07;12.80;97.00
47540;DHT22;33280;52.152;21.052;2024-01-30T13:50:55;12.60;97.10
47540;DHT22;33280;52.152;21.052;2024-01-30T13:53:42;12.50;96.50
47540;DHT22;33280;52.152;21.052;2024-01-30T13:56:30;12.30;96.80
47540;DHT22;33280;52.152;21.052;2024-01-30T13:59:18;12.00;97.10
47540;DHT22;33280;52.152;21.052;2024-01-30T14:02:10;11.90;96.90
47540;DHT22;33280;52.152;21.052;2024-01-30T14:04:58;12.00;97.40
47540;DHT22;33280;52.152;21.052;2024-01-30T14:07:46;11.90;97.20
47540;DHT22;33280;52.152;21.052;2024-01-30T14:10:34;11.80;97.70
47540;DHT22;33280;52.152;21.052;2024-01-30T14:13:22;11.40;97.80
47540;DHT22;33280;52.152;21.052;2024-01-30T14:16:10;11.10;98.40
47540;DHT22;33280;52.152;21.052;2024-01-30T14:18:57;10.90;99.00
47540;DHT22;33280;52.152;21.052;2024-01-30T14:21:44;10.80;99.40
47540;DHT22;33280;52.152;21.052;2024-01-30T14:24:32;10.80;99.60
47540;DHT22;33280;52.152;21.052;2024-01-30T14:27:19;10.60;99.50
47540;DHT22;33280;52.152;21.052;2024-01-30T14:30:10;10.40;99.90
47540;DHT22;33280;52.152;21.052;2024-01-30T14:32:59;10.20;99.90
47540;DHT22;33280;52.152;21.052;2024-01-30T14:35:46;10.20;99.90
47540;DHT22;33280;52.152;21.052;2024-01-30T14:38:33;10.00;99.90
47540;DHT22;33280;52.152;21.052;2024-01-30T14:41:21;9.80;99.90
47540;DHT22;33280;52.152;21.052;2024-01-30T14:44:08;9.70;99.90
47540;DHT22;33280;52.152;21.052;2024-01-30T14:46:56;9.60;99.90
47540;DHT22;33280;52.152;21.052;2024-01-30T14:49:44;9.60;99.90
47540;DHT22;33280;52.152;21.052;2024-01-30T14:52:33;9.50;99.90
47540;DHT22;33280;52.152;21.052;2024-01-30T14:55:21;9.40;99.90
47540;DHT22;33280;52.152;21.052;2024-01-30T14:58:08;9.10;99.90
47540;DHT22;33280;52.152;21.052;2024-01-30T15:00:55;8.90;99.90
47540;DHT22;33280;52.152;21.052;2024-01-30T15:03:43;8.70;99.90
47540;DHT22;33280;52.152;21.052;2024-01-30T15:06:31;8.50;99.90
47540;DHT22;33280;52.152;21.052;2024-01-30T15:09:18;8.40;99.90
47540;DHT22;33280;52.152;21.052;2024-01-30T15:12:06;8.30;99.90
47540;DHT22;33280;52.152;21.052;2024-01-30T15:14:53;8.10;99.90
47540;DHT22;33280;52.152;21.052;2024-01-30T15:17:40;8.00;99.90
47540;DHT22;33280;52.152;21.052;2024-01-30T15:20:28;7.80;99.90
47540;DHT22;33280;52.152;21.052;2024-01-30T15:23:15;7.70;99.90
47540;DHT22;33280;52.152;21.052;2024-01-30T15:26:03;7.50;99.90
47540;DHT22;33280;52.152;21.052;2024-01-30T15:28:51;7.40;99.90
47540;DHT22;33280;52.152;21.052;2024-01-30T15:31:38;7.20;99.90
47540;DHT22;33280;52.152;21.052;2024-01-30T15:34:26;7.20;99.90
47540;DHT22;33280;52.152;21.052;2024-01-30T15:37:13;7.10;99.90
47540;DHT22;33280;52.152;21.052;2024-01-30T15:40:02;6.90;99.90
47540;DHT22;33280;52.152;21.052;2024-01-30T15:42:49;6.90;99.90
47540;DHT22;33280;52.152;21.052;2024-01-30T15:45:37;6.90;99.90
47540;DHT22;33280;52.152;21.052;2024-01-30T15:48:25;6.80;99.90
47540;DHT22;33280;52.152;21.052;2024-01-30T15:51:13;6.70;99.90
47540;DHT22;33280;52.152;21.052;2024-01-30T15:54:00;6.60;99.90
47540;DHT22;33280;52.152;21.052;2024-01-30T15:56:48;6.60;99.90
47540;DHT22;33280;52.152;21.052;2024-01-30T15:59:36;6.50;99.90
47540;DHT22;33280;52.152;21.052;2024-01-30T16:02:24;6.40;99.90
47540;DHT22;33280;52.152;21.052;2024-01-30T16:05:12;6.40;99.90
47540;DHT22;33280;52.152;21.052;2024-01-30T16:08:01;6.30;99.90
47540;DHT22;33280;52.152;21.052;2024-01-30T16:10:49;6.30;99.90
47540;DHT22;33280;52.152;21.052;2024-01-30T16:13:36;6.20;99.90
47540;DHT22;33280;52.152;21.052;2024-01-30T16:16:25;6.20;99.90
47540;DHT22;33280;52.152;21.052;2024-01-30T16:19:12;6.20;99.90
47540;DHT22;33280;52.152;21.052;2024-01-30T16:22:00;6.30;99.90
47540;DHT22;33280;52.152;21.052;2024-01-30T16:24:48;6.20;99.90
47540;DHT22;33280;52.152;21.052;2024-01-30T16:27:37;6.10;99.90
47540;DHT22;33280;52.152;21.052;2024-01-30T16:30:26;6.00;99.90
47540;DHT22;33280;52.152;21.052;2024-01-30T16:33:14;6.00;99.90
47540;DHT22;33280;52.152;21.052;2024-01-30T16:36:01;6.00;99.90
47540;DHT22;33280;52.152;21.052;2024-01-30T16:38:49;5.90;99.90
47540;DHT22;33280;52.152;21.052;2024-01-30T16:41:36;5.80;99.90
47540;DHT22;33280;52.152;21.052;2024-01-30T16:44:24;5.80;99.90
47540;DHT22;33280;52.152;21.052;2024-01-30T16:47:12;5.80;99.90
47540;DHT22;33280;52.152;21.052;2024-01-30T16:49:59;5.70;99.90
47540;DHT22;33280;52.152;21.052;2024-01-30T16:52:47;5.60;99.90
47540;DHT22;33280;52.152;21.052;2024-01-30T16:55:35;5.50;99.90
47540;DHT22;33280;52.152;21.052;2024-01-30T16:58:22;5.50;99.90
47540;DHT22;33280;52.152;21.052;2024-01-30T17:01:09;5.40;99.90
47540;DHT22;33280;52.152;21.052;2024-01-30T17:03:57;5.40;99.90
47540;DHT22;33280;52.152;21.052;2024-01-30T17:06:45;5.40;99.90
47540;DHT22;33280;52.152;21.052;2024-01-30T17:09:32;5.40;99.90
47540;DHT22;33280;52.152;21.052;2024-01-30T17:12:20;5.30;99.90
47540;DHT22;33280;52.152;21.052;2024-01-30T17:15:08;5.30;99.90
47540;DHT22;33280;52.152;21.052;2024-01-30T17:17:56;5.20;99.90
47540;DHT22;33280;52.152;21.052;2024-01-30T17:20:44;5.30;99.90
47540;DHT22;33280;52.152;21.052;2024-01-30T17:23:31;5.20;99.90
47540;DHT22;33280;52.152;21.052;2024-01-30T17:26:21;5.20;99.90
47540;DHT22;33280;52.152;21.052;2024-01-30T17:29:10;5.10;99.90
47540;DHT22;33280;52.152;21.052;2024-01-30T17:31:59;5.10;99.90
47540;DHT22;33280;52.152;21.052;2024-01-30T17:34:46;5.10;99.90
47540;DHT22;33280;52.152;21.052;2024-01-30T17:37:34;5.10;99.90
47540;DHT22;33280;52.152;21.052;2024-01-30T17:40:22;5.00;99.90